Terminal Aerodrome Forecast
Issued by NWS Riverton, WY

Home | Current Version | Previous Version | Text Only | Print | Product List | Glossary On
Versions: 1 2 3 4 5 6 7 8 9 10 11 12 13 14
702
FTUS45 KRIW 242328 CCA
TAFRIW
TAF COR
KRIW 242328Z 2500/2524 28010KT P6SM SCT100
     FM251300 28008KT P6SM FEW100=

USA.gov is the U.S. government's official web portal to all federal, state and local government web resources and services.